sensor_id;sensor_type;location;lat;lon;timestamp;temperature;humidity
44069;DHT22;29738;51.234;5.484;2023-01-05T00:00:00;11.50;99.90
44069;DHT22;29738;51.234;5.484;2023-01-05T00:02:27;11.50;99.90
44069;DHT22;29738;51.234;5.484;2023-01-05T00:04:53;11.50;99.90
44069;DHT22;29738;51.234;5.484;2023-01-05T00:07:18;11.40;99.90
44069;DHT22;29738;51.234;5.484;2023-01-05T00:09:44;11.40;99.90
44069;DHT22;29738;51.234;5.484;2023-01-05T00:12:10;11.50;99.90
44069;DHT22;29738;51.234;5.484;2023-01-05T00:14:54;11.40;99.90
44069;DHT22;29738;51.234;5.484;2023-01-05T00:17:39;11.40;99.90
44069;DHT22;29738;51.234;5.484;2023-01-05T00:20:23;11.40;99.90
44069;DHT22;29738;51.234;5.484;2023-01-05T00:23:08;11.30;99.90
44069;DHT22;29738;51.234;5.484;2023-01-05T00:25:38;11.30;99.90
44069;DHT22;29738;51.234;5.484;2023-01-05T00:28:05;11.40;99.90
44069;DHT22;29738;51.234;5.484;2023-01-05T00:30:38;11.30;99.90
44069;DHT22;29738;51.234;5.484;2023-01-05T00:33:11;11.30;99.90
44069;DHT22;29738;51.234;5.484;2023-01-05T00:35:38;11.30;99.90
44069;DHT22;29738;51.234;5.484;2023-01-05T00:38:06;11.30;99.90
44069;DHT22;29738;51.234;5.484;2023-01-05T00:40:33;11.30;99.90
44069;DHT22;29738;51.234;5.484;2023-01-05T00:42:59;11.20;99.90
44069;DHT22;29738;51.234;5.484;2023-01-05T00:45:25;11.20;99.90
44069;DHT22;29738;51.234;5.484;2023-01-05T00:47:51;11.10;99.90
44069;DHT22;29738;51.234;5.484;2023-01-05T00:50:18;11.10;99.90
44069;DHT22;29738;51.234;5.484;2023-01-05T00:52:45;11.00;99.90
44069;DHT22;29738;51.234;5.484;2023-01-05T00:55:11;11.00;99.90
44069;DHT22;29738;51.234;5.484;2023-01-05T00:57:37;11.00;99.90
44069;DHT22;29738;51.234;5.484;2023-01-05T01:00:04;11.00;99.90
44069;DHT22;29738;51.234;5.484;2023-01-05T01:02:30;10.90;99.90
44069;DHT22;29738;51.234;5.484;2023-01-05T01:04:56;10.80;99.90
44069;DHT22;29738;51.234;5.484;2023-01-05T01:07:22;10.80;99.90
44069;DHT22;29738;51.234;5.484;2023-01-05T01:09:48;10.80;99.90
44069;DHT22;29738;51.234;5.484;2023-01-05T01:12:14;10.70;99.90
44069;DHT22;29738;51.234;5.484;2023-01-05T01:14:39;10.80;99.90
44069;DHT22;29738;51.234;5.484;2023-01-05T01:17:05;10.80;99.90
44069;DHT22;29738;51.234;5.484;2023-01-05T01:19:31;10.80;99.90
44069;DHT22;29738;51.234;5.484;2023-01-05T01:21:57;10.70;99.90
44069;DHT22;29738;51.234;5.484;2023-01-05T01:24:25;10.70;99.90
44069;DHT22;29738;51.234;5.484;2023-01-05T01:26:52;10.70;99.90
44069;DHT22;29738;51.234;5.484;2023-01-05T01:29:18;10.80;99.90
44069;DHT22;29738;51.234;5.484;2023-01-05T01:31:46;10.70;99.90
44069;DHT22;29738;51.234;5.484;2023-01-05T01:34:12;10.70;99.90
44069;DHT22;29738;51.234;5.484;2023-01-05T01:36:38;10.70;99.90
44069;DHT22;29738;51.234;5.484;2023-01-05T01:39:04;10.70;99.90
44069;DHT22;29738;51.234;5.484;2023-01-05T01:41:30;10.80;99.90
44069;DHT22;29738;51.234;5.484;2023-01-05T01:43:56;10.80;99.90
44069;DHT22;29738;51.234;5.484;2023-01-05T01:46:24;10.70;99.90
44069;DHT22;29738;51.234;5.484;2023-01-05T01:49:00;10.70;99.90
44069;DHT22;29738;51.234;5.484;2023-01-05T01:51:39;10.80;99.90
44069;DHT22;29738;51.234;5.484;2023-01-05T01:54:08;10.60;99.90
44069;DHT22;29738;51.234;5.484;2023-01-05T01:56:41;10.80;99.90
44069;DHT22;29738;51.234;5.484;2023-01-05T01:59:09;10.80;99.90
44069;DHT22;29738;51.234;5.484;2023-01-05T02:01:36;10.90;99.90
44069;DHT22;29738;51.234;5.484;2023-01-05T02:04:03;10.90;99.90
44069;DHT22;29738;51.234;5.484;2023-01-05T02:06:29;10.90;99.90
44069;DHT22;29738;51.234;5.484;2023-01-05T02:08:55;10.90;99.90
44069;DHT22;29738;51.234;5.484;2023-01-05T02:11:49;11.00;99.90
44069;DHT22;29738;51.234;5.484;2023-01-05T02:28:42;11.00;99.90
44069;DHT22;29738;51.234;5.484;2023-01-05T02:37:09;10.90;99.90
44069;DHT22;29738;51.234;5.484;2023-01-05T02:39:34;10.90;99.90
44069;DHT22;29738;51.234;5.484;2023-01-05T02:42:13;11.00;99.90
44069;DHT22;29738;51.234;5.484;2023-01-05T02:44:40;11.00;99.90
44069;DHT22;29738;51.234;5.484;2023-01-05T02:49:50;11.00;99.90
44069;DHT22;29738;51.234;5.484;2023-01-05T02:52:18;11.10;99.90
44069;DHT22;29738;51.234;5.484;2023-01-05T02:54:52;11.00;99.90
44069;DHT22;29738;51.234;5.484;2023-01-05T02:57:33;11.00;99.90
44069;DHT22;29738;51.234;5.484;2023-01-05T03:02:52;11.10;99.90
44069;DHT22;29738;51.234;5.484;2023-01-05T03:05:31;11.10;99.90
44069;DHT22;29738;51.234;5.484;2023-01-05T03:07:59;11.10;99.90
44069;DHT22;29738;51.234;5.484;2023-01-05T03:10:46;11.10;99.90
44069;DHT22;29738;51.234;5.484;2023-01-05T03:13:36;11.00;99.90
44069;DHT22;29738;51.234;5.484;2023-01-05T03:16:14;11.00;99.90
44069;DHT22;29738;51.234;5.484;2023-01-05T03:18:40;11.00;99.90
44069;DHT22;29738;51.234;5.484;2023-01-05T03:21:26;11.00;99.90
44069;DHT22;29738;51.234;5.484;2023-01-05T03:23:54;11.00;99.90
44069;DHT22;29738;51.234;5.484;2023-01-05T03:26:39;11.00;99.90
44069;DHT22;29738;51.234;5.484;2023-01-05T03:29:24;11.00;99.90
44069;DHT22;29738;51.234;5.484;2023-01-05T03:32:18;11.00;99.90
44069;DHT22;29738;51.234;5.484;2023-01-05T03:35:18;10.90;99.90
44069;DHT22;29738;51.234;5.484;2023-01-05T03:38:27;10.90;99.90
44069;DHT22;29738;51.234;5.484;2023-01-05T03:40:58;10.90;99.90
44069;DHT22;29738;51.234;5.484;2023-01-05T03:43:25;10.90;99.90
44069;DHT22;29738;51.234;5.484;2023-01-05T03:45:56;10.90;99.90
44069;DHT22;29738;51.234;5.484;2023-01-05T03:48:23;10.90;99.90
44069;DHT22;29738;51.234;5.484;2023-01-05T03:50:49;10.90;99.90
44069;DHT22;29738;51.234;5.484;2023-01-05T03:53:15;10.90;99.90
44069;DHT22;29738;51.234;5.484;2023-01-05T03:55:41;10.80;99.90
44069;DHT22;29738;51.234;5.484;2023-01-05T03:58:07;10.80;99.90
44069;DHT22;29738;51.234;5.484;2023-01-05T04:00:32;10.80;99.90
44069;DHT22;29738;51.234;5.484;2023-01-05T04:02:58;10.80;99.90
44069;DHT22;29738;51.234;5.484;2023-01-05T04:05:24;10.80;99.90
44069;DHT22;29738;51.234;5.484;2023-01-05T04:07:50;10.80;99.90
44069;DHT22;29738;51.234;5.484;2023-01-05T04:10:16;10.80;99.90
44069;DHT22;29738;51.234;5.484;2023-01-05T04:12:42;10.80;99.90
44069;DHT22;29738;51.234;5.484;2023-01-05T04:15:08;10.90;99.90
44069;DHT22;29738;51.234;5.484;2023-01-05T04:17:34;10.90;99.90
44069;DHT22;29738;51.234;5.484;2023-01-05T04:20:00;10.80;99.90
44069;DHT22;29738;51.234;5.484;2023-01-05T04:22:26;10.80;99.90
44069;DHT22;29738;51.234;5.484;2023-01-05T04:24:51;10.80;99.90
44069;DHT22;29738;51.234;5.484;2023-01-05T04:27:17;10.90;99.90
44069;DHT22;29738;51.234;5.484;2023-01-05T04:29:43;10.90;99.90
44069;DHT22;29738;51.234;5.484;2023-01-05T04:32:09;10.90;99.90
44069;DHT22;29738;51.234;5.484;2023-01-05T04:34:35;10.90;99.90
44069;DHT22;29738;51.234;5.484;2023-01-05T04:37:00;10.90;99.90
44069;DHT22;29738;51.234;5.484;2023-01-05T04:39:26;10.90;99.90
44069;DHT22;29738;51.234;5.484;2023-01-05T04:41:52;10.80;99.90
44069;DHT22;29738;51.234;5.484;2023-01-05T04:44:18;10.90;99.90
44069;DHT22;29738;51.234;5.484;2023-01-05T04:46:43;10.90;99.90
44069;DHT22;29738;51.234;5.484;2023-01-05T04:49:09;10.90;99.90
44069;DHT22;29738;51.234;5.484;2023-01-05T04:51:35;10.90;99.90
44069;DHT22;29738;51.234;5.484;2023-01-05T04:54:01;10.80;99.90
44069;DHT22;29738;51.234;5.484;2023-01-05T04:56:27;10.90;99.90
44069;DHT22;29738;51.234;5.484;2023-01-05T04:58:52;10.90;99.90
44069;DHT22;29738;51.234;5.484;2023-01-05T05:01:18;10.90;99.90
44069;DHT22;29738;51.234;5.484;2023-01-05T05:03:44;10.90;99.90
44069;DHT22;29738;51.234;5.484;2023-01-05T05:06:10;11.00;99.90
44069;DHT22;29738;51.234;5.484;2023-01-05T05:08:35;10.90;99.90
44069;DHT22;29738;51.234;5.484;2023-01-05T05:11:01;10.90;99.90
44069;DHT22;29738;51.234;5.484;2023-01-05T05:13:27;10.90;99.90
44069;DHT22;29738;51.234;5.484;2023-01-05T05:15:53;10.90;99.90
44069;DHT22;29738;51.234;5.484;2023-01-05T05:18:18;10.90;99.90
44069;DHT22;29738;51.234;5.484;2023-01-05T05:20:47;10.90;99.90
44069;DHT22;29738;51.234;5.484;2023-01-05T05:23:13;11.00;99.90
44069;DHT22;29738;51.234;5.484;2023-01-05T05:25:39;11.00;99.90
44069;DHT22;29738;51.234;5.484;2023-01-05T05:28:05;11.00;99.90
44069;DHT22;29738;51.234;5.484;2023-01-05T05:30:31;11.00;99.90
44069;DHT22;29738;51.234;5.484;2023-01-05T05:32:56;11.00;99.90
44069;DHT22;29738;51.234;5.484;2023-01-05T05:35:22;11.00;99.90
44069;DHT22;29738;51.234;5.484;2023-01-05T05:37:48;10.90;99.90
44069;DHT22;29738;51.234;5.484;2023-01-05T05:40:14;10.90;99.90
44069;DHT22;29738;51.234;5.484;2023-01-05T05:42:39;10.90;99.90
44069;DHT22;29738;51.234;5.484;2023-01-05T05:45:05;10.90;99.90
44069;DHT22;29738;51.234;5.484;2023-01-05T05:47:31;10.90;99.90
44069;DHT22;29738;51.234;5.484;2023-01-05T05:49:57;11.00;99.90
44069;DHT22;29738;51.234;5.484;2023-01-05T05:52:23;10.90;99.90
44069;DHT22;29738;51.234;5.484;2023-01-05T05:54:49;10.90;99.90
44069;DHT22;29738;51.234;5.484;2023-01-05T05:57:14;10.90;99.90
44069;DHT22;29738;51.234;5.484;2023-01-05T05:59:42;10.90;99.90
44069;DHT22;29738;51.234;5.484;2023-01-05T06:02:07;11.00;99.90
44069;DHT22;29738;51.234;5.484;2023-01-05T06:04:33;10.90;99.90
44069;DHT22;29738;51.234;5.484;2023-01-05T06:06:59;10.80;99.90
44069;DHT22;29738;51.234;5.484;2023-01-05T06:09:25;10.90;99.90
44069;DHT22;29738;51.234;5.484;2023-01-05T06:11:51;10.90;99.90
44069;DHT22;29738;51.234;5.484;2023-01-05T06:14:17;10.90;99.90
44069;DHT22;29738;51.234;5.484;2023-01-05T06:16:42;10.80;99.90
44069;DHT22;29738;51.234;5.484;2023-01-05T06:19:10;10.80;99.90
44069;DHT22;29738;51.234;5.484;2023-01-05T06:21:36;10.90;99.90
44069;DHT22;29738;51.234;5.484;2023-01-05T06:24:01;10.80;99.90
44069;DHT22;29738;51.234;5.484;2023-01-05T06:26:27;10.80;99.90
44069;DHT22;29738;51.234;5.484;2023-01-05T06:28:53;10.80;99.90
44069;DHT22;29738;51.234;5.484;2023-01-05T06:31:19;10.80;99.90
44069;DHT22;29738;51.234;5.484;2023-01-05T06:33:44;10.80;99.90
44069;DHT22;29738;51.234;5.484;2023-01-05T06:36:10;10.90;99.90
44069;DHT22;29738;51.234;5.484;2023-01-05T06:38:36;10.80;99.90
44069;DHT22;29738;51.234;5.484;2023-01-05T06:41:02;10.90;99.90
44069;DHT22;29738;51.234;5.484;2023-01-05T06:43:27;10.90;99.90
44069;DHT22;29738;51.234;5.484;2023-01-05T06:45:53;10.90;99.90
44069;DHT22;29738;51.234;5.484;2023-01-05T06:48:19;10.90;99.90
44069;DHT22;29738;51.234;5.484;2023-01-05T06:50:44;10.90;99.90
44069;DHT22;29738;51.234;5.484;2023-01-05T06:53:10;10.90;99.90
44069;DHT22;29738;51.234;5.484;2023-01-05T06:55:36;10.80;99.90
44069;DHT22;29738;51.234;5.484;2023-01-05T06:58:02;10.80;99.90
44069;DHT22;29738;51.234;5.484;2023-01-05T07:00:28;10.90;99.90
44069;DHT22;29738;51.234;5.484;2023-01-05T07:02:54;10.80;99.90
44069;DHT22;29738;51.234;5.484;2023-01-05T07:05:19;10.80;99.90
44069;DHT22;29738;51.234;5.484;2023-01-05T07:07:47;10.80;99.90
44069;DHT22;29738;51.234;5.484;2023-01-05T07:10:13;10.80;99.90
44069;DHT22;29738;51.234;5.484;2023-01-05T07:12:38;10.80;99.90
44069;DHT22;29738;51.234;5.484;2023-01-05T07:15:05;10.80;99.90
44069;DHT22;29738;51.234;5.484;2023-01-05T07:17:31;10.80;99.90
44069;DHT22;29738;51.234;5.484;2023-01-05T07:19:57;10.80;99.90
44069;DHT22;29738;51.234;5.484;2023-01-05T07:22:23;10.90;99.90
44069;DHT22;29738;51.234;5.484;2023-01-05T07:24:48;10.90;99.90
44069;DHT22;29738;51.234;5.484;2023-01-05T07:27:14;10.90;99.90
44069;DHT22;29738;51.234;5.484;2023-01-05T07:29:40;10.80;99.90
44069;DHT22;29738;51.234;5.484;2023-01-05T07:32:06;10.80;99.90
44069;DHT22;29738;51.234;5.484;2023-01-05T07:34:31;10.80;99.90
44069;DHT22;29738;51.234;5.484;2023-01-05T07:36:57;10.90;99.90
44069;DHT22;29738;51.234;5.484;2023-01-05T07:39:23;10.90;99.90
44069;DHT22;29738;51.234;5.484;2023-01-05T07:41:49;10.90;99.90
44069;DHT22;29738;51.234;5.484;2023-01-05T07:44:14;10.90;99.90
44069;DHT22;29738;51.234;5.484;2023-01-05T07:46:40;10.90;99.90
44069;DHT22;29738;51.234;5.484;2023-01-05T07:49:06;11.00;99.90
44069;DHT22;29738;51.234;5.484;2023-01-05T07:51:32;10.90;99.90
44069;DHT22;29738;51.234;5.484;2023-01-05T07:53:57;10.90;99.90
44069;DHT22;29738;51.234;5.484;2023-01-05T07:56:23;11.00;99.90
44069;DHT22;29738;51.234;5.484;2023-01-05T07:58:49;10.90;99.90
44069;DHT22;29738;51.234;5.484;2023-01-05T08:01:15;11.00;99.90
44069;DHT22;29738;51.234;5.484;2023-01-05T08:03:42;10.90;99.90
44069;DHT22;29738;51.234;5.484;2023-01-05T08:06:10;10.90;99.90
44069;DHT22;29738;51.234;5.484;2023-01-05T08:08:37;10.90;99.90
44069;DHT22;29738;51.234;5.484;2023-01-05T08:11:07;10.90;99.90
44069;DHT22;29738;51.234;5.484;2023-01-05T08:13:34;10.90;99.90
44069;DHT22;29738;51.234;5.484;2023-01-05T08:16:18;11.00;99.90
44069;DHT22;29738;51.234;5.484;2023-01-05T08:18:44;11.00;99.90
44069;DHT22;29738;51.234;5.484;2023-01-05T08:21:10;11.00;99.90
44069;DHT22;29738;51.234;5.484;2023-01-05T08:23:36;10.90;99.90
44069;DHT22;29738;51.234;5.484;2023-01-05T08:26:07;10.90;99.90
44069;DHT22;29738;51.234;5.484;2023-01-05T08:28:36;10.90;99.90
44069;DHT22;29738;51.234;5.484;2023-01-05T08:31:05;10.90;99.90
44069;DHT22;29738;51.234;5.484;2023-01-05T08:33:31;10.90;99.90
44069;DHT22;29738;51.234;5.484;2023-01-05T08:35:57;11.00;99.90
44069;DHT22;29738;51.234;5.484;2023-01-05T08:38:23;11.00;99.90
44069;DHT22;29738;51.234;5.484;2023-01-05T08:40:49;11.00;99.90
44069;DHT22;29738;51.234;5.484;2023-01-05T08:43:15;10.90;99.90
44069;DHT22;29738;51.234;5.484;2023-01-05T08:45:41;10.90;99.90
44069;DHT22;29738;51.234;5.484;2023-01-05T08:48:07;11.00;99.90
44069;DHT22;29738;51.234;5.484;2023-01-05T08:50:33;11.00;99.90
44069;DHT22;29738;51.234;5.484;2023-01-05T08:53:00;11.00;99.90
44069;DHT22;29738;51.234;5.484;2023-01-05T08:55:26;11.00;99.90
44069;DHT22;29738;51.234;5.484;2023-01-05T08:57:52;11.00;99.90
44069;DHT22;29738;51.234;5.484;2023-01-05T09:00:18;11.00;99.90
44069;DHT22;29738;51.234;5.484;2023-01-05T09:02:46;11.00;99.90
44069;DHT22;29738;51.234;5.484;2023-01-05T09:05:12;11.00;99.90
44069;DHT22;29738;51.234;5.484;2023-01-05T09:07:38;11.00;99.90
44069;DHT22;29738;51.234;5.484;2023-01-05T09:10:05;11.00;99.90
44069;DHT22;29738;51.234;5.484;2023-01-05T09:12:34;11.00;99.90
44069;DHT22;29738;51.234;5.484;2023-01-05T09:15:00;11.10;99.90
44069;DHT22;29738;51.234;5.484;2023-01-05T09:17:25;11.20;99.90
44069;DHT22;29738;51.234;5.484;2023-01-05T09:19:51;11.20;99.90
44069;DHT22;29738;51.234;5.484;2023-01-05T09:22:17;11.20;99.90
44069;DHT22;29738;51.234;5.484;2023-01-05T09:24:43;11.20;99.90
44069;DHT22;29738;51.234;5.484;2023-01-05T09:27:09;11.20;99.90
44069;DHT22;29738;51.234;5.484;2023-01-05T09:29:34;11.10;99.90
44069;DHT22;29738;51.234;5.484;2023-01-05T09:32:00;11.20;99.90
44069;DHT22;29738;51.234;5.484;2023-01-05T09:34:26;11.20;99.90
44069;DHT22;29738;51.234;5.484;2023-01-05T09:36:52;11.30;99.90
44069;DHT22;29738;51.234;5.484;2023-01-05T09:39:17;11.20;99.90
44069;DHT22;29738;51.234;5.484;2023-01-05T09:41:54;11.20;99.90
44069;DHT22;29738;51.234;5.484;2023-01-05T09:44:29;11.20;99.90
44069;DHT22;29738;51.234;5.484;2023-01-05T09:47:10;11.20;99.90
44069;DHT22;29738;51.234;5.484;2023-01-05T09:49:38;11.20;99.90
44069;DHT22;29738;51.234;5.484;2023-01-05T09:52:06;11.20;99.90
44069;DHT22;29738;51.234;5.484;2023-01-05T09:54:35;11.20;99.90
44069;DHT22;29738;51.234;5.484;2023-01-05T09:57:01;11.30;99.90
44069;DHT22;29738;51.234;5.484;2023-01-05T09:59:30;11.30;99.90
44069;DHT22;29738;51.234;5.484;2023-01-05T10:02:01;11.30;99.90
44069;DHT22;29738;51.234;5.484;2023-01-05T10:04:30;11.30;99.90
44069;DHT22;29738;51.234;5.484;2023-01-05T10:07:00;11.30;99.90
44069;DHT22;29738;51.234;5.484;2023-01-05T10:09:34;11.30;99.90
44069;DHT22;29738;51.234;5.484;2023-01-05T10:15:11;11.30;99.90
44069;DHT22;29738;51.234;5.484;2023-01-05T10:17:38;11.40;99.90
44069;DHT22;29738;51.234;5.484;2023-01-05T10:20:31;11.50;99.90
44069;DHT22;29738;51.234;5.484;2023-01-05T10:31:05;11.40;99.90
44069;DHT22;29738;51.234;5.484;2023-01-05T10:34:07;11.60;99.90
44069;DHT22;29738;51.234;5.484;2023-01-05T10:39:31;11.40;99.90
44069;DHT22;29738;51.234;5.484;2023-01-05T10:42:18;11.50;99.90
44069;DHT22;29738;51.234;5.484;2023-01-05T10:44:53;11.40;99.90
44069;DHT22;29738;51.234;5.484;2023-01-05T10:47:20;11.50;99.90
44069;DHT22;29738;51.234;5.484;2023-01-05T10:49:47;11.60;99.90
44069;DHT22;29738;51.234;5.484;2023-01-05T10:52:18;11.60;99.90
44069;DHT22;29738;51.234;5.484;2023-01-05T10:54:51;11.60;99.90
44069;DHT22;29738;51.234;5.484;2023-01-05T10:57:39;11.60;99.90
44069;DHT22;29738;51.234;5.484;2023-01-05T11:03:02;11.60;99.90
44069;DHT22;29738;51.234;5.484;2023-01-05T11:05:35;11.50;99.90
44069;DHT22;29738;51.234;5.484;2023-01-05T11:08:04;11.50;99.90
44069;DHT22;29738;51.234;5.484;2023-01-05T11:10:36;11.50;99.90
44069;DHT22;29738;51.234;5.484;2023-01-05T11:13:28;11.40;99.90
44069;DHT22;29738;51.234;5.484;2023-01-05T11:15:58;11.40;99.90
44069;DHT22;29738;51.234;5.484;2023-01-05T11:18:31;11.40;99.90
44069;DHT22;29738;51.234;5.484;2023-01-05T11:21:14;11.40;99.90
44069;DHT22;29738;51.234;5.484;2023-01-05T11:23:45;11.30;99.90
44069;DHT22;29738;51.234;5.484;2023-01-05T11:26:26;11.30;99.90
44069;DHT22;29738;51.234;5.484;2023-01-05T11:36:53;11.70;99.90
44069;DHT22;29738;51.234;5.484;2023-01-05T11:47:24;11.70;99.90
44069;DHT22;29738;51.234;5.484;2023-01-05T11:52:43;11.90;99.90
44069;DHT22;29738;51.234;5.484;2023-01-05T11:57:44;11.80;99.90
44069;DHT22;29738;51.234;5.484;2023-01-05T12:00:24;11.80;99.90
44069;DHT22;29738;51.234;5.484;2023-01-05T12:05:52;11.60;99.90
44069;DHT22;29738;51.234;5.484;2023-01-05T12:11:14;11.80;99.90
44069;DHT22;29738;51.234;5.484;2023-01-05T12:14:10;11.80;99.90
44069;DHT22;29738;51.234;5.484;2023-01-05T12:16:54;11.60;99.90
44069;DHT22;29738;51.234;5.484;2023-01-05T12:19:36;11.50;99.90
44069;DHT22;29738;51.234;5.484;2023-01-05T12:30:20;11.70;99.90
44069;DHT22;29738;51.234;5.484;2023-01-05T12:33:12;11.80;99.90
44069;DHT22;29738;51.234;5.484;2023-01-05T12:38:35;12.00;99.90
44069;DHT22;29738;51.234;5.484;2023-01-05T12:41:33;12.00;99.90
44069;DHT22;29738;51.234;5.484;2023-01-05T12:44:32;11.80;99.90
44069;DHT22;29738;51.234;5.484;2023-01-05T12:52:50;11.80;99.90
44069;DHT22;29738;51.234;5.484;2023-01-05T12:55:30;11.80;99.90
44069;DHT22;29738;51.234;5.484;2023-01-05T12:58:05;11.90;99.90
44069;DHT22;29738;51.234;5.484;2023-01-05T13:00:36;11.90;99.90
44069;DHT22;29738;51.234;5.484;2023-01-05T13:03:20;12.00;99.90
44069;DHT22;29738;51.234;5.484;2023-01-05T13:08:44;12.20;99.90
44069;DHT22;29738;51.234;5.484;2023-01-05T13:12:04;11.90;99.90
44069;DHT22;29738;51.234;5.484;2023-01-05T13:16:35;12.20;99.90
44069;DHT22;29738;51.234;5.484;2023-01-05T13:21:39;12.30;99.90
44069;DHT22;29738;51.234;5.484;2023-01-05T13:24:10;12.30;99.90
44069;DHT22;29738;51.234;5.484;2023-01-05T13:26:37;12.40;99.90
44069;DHT22;29738;51.234;5.484;2023-01-05T13:29:03;12.40;99.90
44069;DHT22;29738;51.234;5.484;2023-01-05T13:36:54;12.50;99.90
44069;DHT22;29738;51.234;5.484;2023-01-05T13:42:24;12.30;99.90
44069;DHT22;29738;51.234;5.484;2023-01-05T13:53:18;12.40;99.90
44069;DHT22;29738;51.234;5.484;2023-01-05T13:56:04;12.50;99.90
44069;DHT22;29738;51.234;5.484;2023-01-05T14:01:17;12.30;99.90
44069;DHT22;29738;51.234;5.484;2023-01-05T14:03:52;12.30;99.90
44069;DHT22;29738;51.234;5.484;2023-01-05T14:06:33;12.40;99.90
44069;DHT22;29738;51.234;5.484;2023-01-05T14:09:03;12.30;99.90
44069;DHT22;29738;51.234;5.484;2023-01-05T14:11:30;12.40;99.90
44069;DHT22;29738;51.234;5.484;2023-01-05T14:14:05;12.40;99.90
44069;DHT22;29738;51.234;5.484;2023-01-05T14:22:32;12.00;99.90
44069;DHT22;29738;51.234;5.484;2023-01-05T14:39:21;12.20;99.90
44069;DHT22;29738;51.234;5.484;2023-01-05T14:42:16;12.20;99.90
44069;DHT22;29738;51.234;5.484;2023-01-05T14:44:50;12.20;99.90
44069;DHT22;29738;51.234;5.484;2023-01-05T14:47:37;12.00;99.90
44069;DHT22;29738;51.234;5.484;2023-01-05T14:50:05;12.10;99.90
44069;DHT22;29738;51.234;5.484;2023-01-05T14:52:57;12.10;99.90
44069;DHT22;29738;51.234;5.484;2023-01-05T14:55:25;12.10;99.90
44069;DHT22;29738;51.234;5.484;2023-01-05T14:57:53;12.10;99.90
44069;DHT22;29738;51.234;5.484;2023-01-05T15:00:33;12.00;99.90
44069;DHT22;29738;51.234;5.484;2023-01-05T15:03:03;12.00;99.90
44069;DHT22;29738;51.234;5.484;2023-01-05T15:05:31;11.80;99.90
44069;DHT22;29738;51.234;5.484;2023-01-05T15:08:18;11.70;99.90
44069;DHT22;29738;51.234;5.484;2023-01-05T15:14:05;11.80;99.90
44069;DHT22;29738;51.234;5.484;2023-01-05T15:34:00;11.30;99.90
44069;DHT22;29738;51.234;5.484;2023-01-05T15:36:35;11.30;99.90
44069;DHT22;29738;51.234;5.484;2023-01-05T15:39:22;11.20;99.90
44069;DHT22;29738;51.234;5.484;2023-01-05T15:41:48;11.20;99.90
44069;DHT22;29738;51.234;5.484;2023-01-05T15:44:16;11.20;99.90
44069;DHT22;29738;51.234;5.484;2023-01-05T15:46:43;11.30;99.90
44069;DHT22;29738;51.234;5.484;2023-01-05T15:49:18;11.30;99.90
44069;DHT22;29738;51.234;5.484;2023-01-05T15:51:50;11.40;99.90
44069;DHT22;29738;51.234;5.484;2023-01-05T15:54:22;11.40;99.90
44069;DHT22;29738;51.234;5.484;2023-01-05T15:56:49;11.40;99.90
44069;DHT22;29738;51.234;5.484;2023-01-05T15:59:35;11.40;99.90
44069;DHT22;29738;51.234;5.484;2023-01-05T16:02:24;11.30;99.90
44069;DHT22;29738;51.234;5.484;2023-01-05T16:05:14;11.30;99.90
44069;DHT22;29738;51.234;5.484;2023-01-05T16:07:56;11.40;99.90
44069;DHT22;29738;51.234;5.484;2023-01-05T16:10:53;11.40;99.90
44069;DHT22;29738;51.234;5.484;2023-01-05T16:14:14;11.20;99.90
44069;DHT22;29738;51.234;5.484;2023-01-05T16:19:26;11.30;99.90
44069;DHT22;29738;51.234;5.484;2023-01-05T16:26:58;11.40;99.90
44069;DHT22;29738;51.234;5.484;2023-01-05T16:29:37;11.40;99.90
44069;DHT22;29738;51.234;5.484;2023-01-05T16:32:04;11.30;99.90
44069;DHT22;29738;51.234;5.484;2023-01-05T16:34:30;11.40;99.90
44069;DHT22;29738;51.234;5.484;2023-01-05T16:37:06;11.40;99.90
44069;DHT22;29738;51.234;5.484;2023-01-05T16:39:38;11.40;99.90
44069;DHT22;29738;51.234;5.484;2023-01-05T16:42:16;11.20;99.90
44069;DHT22;29738;51.234;5.484;2023-01-05T16:45:16;11.20;99.90
44069;DHT22;29738;51.234;5.484;2023-01-05T16:47:43;11.20;99.90
44069;DHT22;29738;51.234;5.484;2023-01-05T16:53:03;11.10;99.90
44069;DHT22;29738;51.234;5.484;2023-01-05T16:55:35;11.00;99.90
44069;DHT22;29738;51.234;5.484;2023-01-05T16:58:03;11.00;99.90
44069;DHT22;29738;51.234;5.484;2023-01-05T17:02:56;11.30;99.90
44069;DHT22;29738;51.234;5.484;2023-01-05T17:05:27;11.20;99.90
44069;DHT22;29738;51.234;5.484;2023-01-05T17:08:20;11.20;99.90
44069;DHT22;29738;51.234;5.484;2023-01-05T17:10:46;11.10;99.90
44069;DHT22;29738;51.234;5.484;2023-01-05T17:13:16;11.10;99.90
44069;DHT22;29738;51.234;5.484;2023-01-05T17:15:45;11.10;99.90
44069;DHT22;29738;51.234;5.484;2023-01-05T17:18:35;11.00;99.90
44069;DHT22;29738;51.234;5.484;2023-01-05T17:21:03;11.00;99.90
44069;DHT22;29738;51.234;5.484;2023-01-05T17:25:58;11.10;99.90
44069;DHT22;29738;51.234;5.484;2023-01-05T17:28:24;11.20;99.90
44069;DHT22;29738;51.234;5.484;2023-01-05T17:30:51;11.20;99.90
44069;DHT22;29738;51.234;5.484;2023-01-05T17:33:17;11.20;99.90
44069;DHT22;29738;51.234;5.484;2023-01-05T17:35:44;11.10;99.90
44069;DHT22;29738;51.234;5.484;2023-01-05T17:38:10;11.20;99.90
44069;DHT22;29738;51.234;5.484;2023-01-05T17:40:36;11.20;99.90
44069;DHT22;29738;51.234;5.484;2023-01-05T17:43:02;11.20;99.90
44069;DHT22;29738;51.234;5.484;2023-01-05T17:45:28;11.20;99.90
44069;DHT22;29738;51.234;5.484;2023-01-05T17:47:55;11.20;99.90
44069;DHT22;29738;51.234;5.484;2023-01-05T17:50:30;11.30;99.90
44069;DHT22;29738;51.234;5.484;2023-01-05T17:52:57;11.40;99.90
44069;DHT22;29738;51.234;5.484;2023-01-05T17:55:24;11.30;99.90
44069;DHT22;29738;51.234;5.484;2023-01-05T17:57:51;11.30;99.90
44069;DHT22;29738;51.234;5.484;2023-01-05T18:00:19;11.40;99.90
44069;DHT22;29738;51.234;5.484;2023-01-05T18:02:45;11.50;99.90
44069;DHT22;29738;51.234;5.484;2023-01-05T18:05:11;11.40;99.90
44069;DHT22;29738;51.234;5.484;2023-01-05T18:07:38;11.50;99.90
44069;DHT22;29738;51.234;5.484;2023-01-05T18:10:06;11.60;99.90
44069;DHT22;29738;51.234;5.484;2023-01-05T18:12:32;11.70;99.90
44069;DHT22;29738;51.234;5.484;2023-01-05T18:14:58;11.90;99.90
44069;DHT22;29738;51.234;5.484;2023-01-05T18:17:24;11.90;99.90
44069;DHT22;29738;51.234;5.484;2023-01-05T18:19:50;11.80;99.90
44069;DHT22;29738;51.234;5.484;2023-01-05T18:22:16;11.70;99.90
44069;DHT22;29738;51.234;5.484;2023-01-05T18:24:42;11.70;99.90
44069;DHT22;29738;51.234;5.484;2023-01-05T18:27:09;11.70;99.90
44069;DHT22;29738;51.234;5.484;2023-01-05T18:29:36;11.90;99.90
44069;DHT22;29738;51.234;5.484;2023-01-05T18:32:02;12.00;99.90
44069;DHT22;29738;51.234;5.484;2023-01-05T18:34:29;11.90;99.90
44069;DHT22;29738;51.234;5.484;2023-01-05T18:36:55;11.80;99.90
44069;DHT22;29738;51.234;5.484;2023-01-05T18:39:22;11.70;99.90